Kings Canyon, California
Current Conditions -  °F | °C
As of 4:56 PM on Saturday 22 Nov 2014 (Local Time) from KBIH Reporting Station
Clear Clear  
Wind Chill: 63°   Ceiling: Unl
Heat Index: 63°   Visibility: 10mi
Dew Point: 20°   Wind: 14mph
Humidity: 19%   Direction: 340°NNW
Pressure: 29.92"   Gusts: NA
Location:  36.7872°N, 118.66°W
Report Text: KBIH 230056Z AUTO 34012KT 10SM CLR 17/M07 A2992 RMK AO2 SLP118 T01721067
Loading
Personal Weather Stations






























Interactive Weather Map New forecast layout! Learn more

10-Day Weather Forecast

Advertisements
Track Severe Weather on mobile